sensor_id;sensor_type;location;lat;lon;timestamp;temperature;humidity
35796;DHT22;21916;52.428;13.302;2022-11-14T00:02:15;6.50;99.90
35796;DHT22;21916;52.428;13.302;2022-11-14T00:05:00;6.40;99.90
35796;DHT22;21916;52.428;13.302;2022-11-14T00:07:45;6.40;99.90
35796;DHT22;21916;52.428;13.302;2022-11-14T00:10:30;6.40;99.90
35796;DHT22;21916;52.428;13.302;2022-11-14T00:13:16;6.40;99.90
35796;DHT22;21916;52.428;13.302;2022-11-14T00:16:02;6.30;99.90
35796;DHT22;21916;52.428;13.302;2022-11-14T00:18:46;6.30;99.90
35796;DHT22;21916;52.428;13.302;2022-11-14T00:21:31;6.30;99.90
35796;DHT22;21916;52.428;13.302;2022-11-14T00:24:15;6.30;99.90
35796;DHT22;21916;52.428;13.302;2022-11-14T00:26:59;6.20;99.90
35796;DHT22;21916;52.428;13.302;2022-11-14T00:29:44;6.20;99.90
35796;DHT22;21916;52.428;13.302;2022-11-14T00:32:30;6.20;99.90
35796;DHT22;21916;52.428;13.302;2022-11-14T00:35:14;6.10;99.90
35796;DHT22;21916;52.428;13.302;2022-11-14T00:37:59;6.10;99.90
35796;DHT22;21916;52.428;13.302;2022-11-14T00:40:44;6.10;99.90
35796;DHT22;21916;52.428;13.302;2022-11-14T00:43:28;6.10;99.90
35796;DHT22;21916;52.428;13.302;2022-11-14T00:46:13;6.10;99.90
35796;DHT22;21916;52.428;13.302;2022-11-14T00:48:57;6.10;99.90
35796;DHT22;21916;52.428;13.302;2022-11-14T00:51:42;6.10;99.90
35796;DHT22;21916;52.428;13.302;2022-11-14T00:54:27;6.10;99.90
35796;DHT22;21916;52.428;13.302;2022-11-14T00:57:11;6.20;99.90
35796;DHT22;21916;52.428;13.302;2022-11-14T00:59:56;6.10;99.90
35796;DHT22;21916;52.428;13.302;2022-11-14T01:02:44;6.10;99.90
35796;DHT22;21916;52.428;13.302;2022-11-14T01:05:28;6.00;99.90
35796;DHT22;21916;52.428;13.302;2022-11-14T01:08:14;6.00;99.90
35796;DHT22;21916;52.428;13.302;2022-11-14T01:10:59;5.90;99.90
35796;DHT22;21916;52.428;13.302;2022-11-14T01:13:44;5.90;99.90
35796;DHT22;21916;52.428;13.302;2022-11-14T01:16:29;5.80;99.90
35796;DHT22;21916;52.428;13.302;2022-11-14T01:19:13;5.90;99.90
35796;DHT22;21916;52.428;13.302;2022-11-14T01:21:58;5.90;99.90
35796;DHT22;21916;52.428;13.302;2022-11-14T01:24:42;6.00;99.90
35796;DHT22;21916;52.428;13.302;2022-11-14T01:27:30;6.00;99.90
35796;DHT22;21916;52.428;13.302;2022-11-14T01:30:15;5.90;99.90
35796;DHT22;21916;52.428;13.302;2022-11-14T01:33:00;5.90;99.90
35796;DHT22;21916;52.428;13.302;2022-11-14T01:35:44;5.80;99.90
35796;DHT22;21916;52.428;13.302;2022-11-14T01:38:29;5.80;99.90
35796;DHT22;21916;52.428;13.302;2022-11-14T01:41:15;5.70;99.90
35796;DHT22;21916;52.428;13.302;2022-11-14T01:44:00;5.80;99.90
35796;DHT22;21916;52.428;13.302;2022-11-14T01:46:46;5.70;99.90
35796;DHT22;21916;52.428;13.302;2022-11-14T01:49:38;5.70;99.90
35796;DHT22;21916;52.428;13.302;2022-11-14T01:52:26;5.70;99.90
35796;DHT22;21916;52.428;13.302;2022-11-14T01:55:12;5.70;99.90
35796;DHT22;21916;52.428;13.302;2022-11-14T01:57:57;5.60;99.90
35796;DHT22;21916;52.428;13.302;2022-11-14T02:00:43;5.70;99.90
35796;DHT22;21916;52.428;13.302;2022-11-14T02:03:28;5.80;99.90
35796;DHT22;21916;52.428;13.302;2022-11-14T02:06:17;5.70;99.90
35796;DHT22;21916;52.428;13.302;2022-11-14T02:09:05;5.70;99.90
35796;DHT22;21916;52.428;13.302;2022-11-14T02:11:51;5.80;99.90
35796;DHT22;21916;52.428;13.302;2022-11-14T02:14:37;5.90;99.90
35796;DHT22;21916;52.428;13.302;2022-11-14T02:17:22;6.00;99.90
35796;DHT22;21916;52.428;13.302;2022-11-14T02:22:56;6.20;99.90
35796;DHT22;21916;52.428;13.302;2022-11-14T02:25:40;6.30;99.90
35796;DHT22;21916;52.428;13.302;2022-11-14T02:28:25;6.30;99.90
35796;DHT22;21916;52.428;13.302;2022-11-14T02:31:10;6.30;99.90
35796;DHT22;21916;52.428;13.302;2022-11-14T02:33:55;6.40;99.90
35796;DHT22;21916;52.428;13.302;2022-11-14T02:36:39;6.50;99.90
35796;DHT22;21916;52.428;13.302;2022-11-14T02:39:23;6.50;99.90
35796;DHT22;21916;52.428;13.302;2022-11-14T02:42:08;6.50;99.90
35796;DHT22;21916;52.428;13.302;2022-11-14T02:44:52;6.50;99.90
35796;DHT22;21916;52.428;13.302;2022-11-14T02:47:37;6.60;99.90
35796;DHT22;21916;52.428;13.302;2022-11-14T02:50:21;6.60;99.90
35796;DHT22;21916;52.428;13.302;2022-11-14T02:53:06;6.60;99.90
35796;DHT22;21916;52.428;13.302;2022-11-14T02:55:50;6.60;99.90
35796;DHT22;21916;52.428;13.302;2022-11-14T02:58:35;6.60;99.90
35796;DHT22;21916;52.428;13.302;2022-11-14T03:01:19;6.60;99.90
35796;DHT22;21916;52.428;13.302;2022-11-14T03:04:07;6.60;99.90
35796;DHT22;21916;52.428;13.302;2022-11-14T03:06:52;6.70;99.90
35796;DHT22;21916;52.428;13.302;2022-11-14T03:09:37;6.70;99.90
35796;DHT22;21916;52.428;13.302;2022-11-14T03:12:22;6.70;99.90
35796;DHT22;21916;52.428;13.302;2022-11-14T03:15:07;6.70;99.90
35796;DHT22;21916;52.428;13.302;2022-11-14T03:17:52;6.80;99.90
35796;DHT22;21916;52.428;13.302;2022-11-14T03:20:37;6.80;99.90
35796;DHT22;21916;52.428;13.302;2022-11-14T03:23:21;6.80;99.90
35796;DHT22;21916;52.428;13.302;2022-11-14T03:26:07;6.80;99.90
35796;DHT22;21916;52.428;13.302;2022-11-14T03:28:52;6.80;99.90
35796;DHT22;21916;52.428;13.302;2022-11-14T03:31:38;6.70;99.90
35796;DHT22;21916;52.428;13.302;2022-11-14T03:34:24;6.70;99.90
35796;DHT22;21916;52.428;13.302;2022-11-14T03:37:09;6.70;99.90
35796;DHT22;21916;52.428;13.302;2022-11-14T03:39:53;6.70;99.90
35796;DHT22;21916;52.428;13.302;2022-11-14T03:42:38;6.70;99.90
35796;DHT22;21916;52.428;13.302;2022-11-14T03:45:23;6.70;99.90
35796;DHT22;21916;52.428;13.302;2022-11-14T03:48:08;6.70;99.90
35796;DHT22;21916;52.428;13.302;2022-11-14T03:50:52;6.70;99.90
35796;DHT22;21916;52.428;13.302;2022-11-14T03:53:37;6.60;99.90
35796;DHT22;21916;52.428;13.302;2022-11-14T03:56:22;6.60;99.90
35796;DHT22;21916;52.428;13.302;2022-11-14T03:59:06;6.60;99.90
35796;DHT22;21916;52.428;13.302;2022-11-14T04:01:51;6.60;99.90
35796;DHT22;21916;52.428;13.302;2022-11-14T04:04:36;6.60;99.90
35796;DHT22;21916;52.428;13.302;2022-11-14T04:07:20;6.60;99.90
35796;DHT22;21916;52.428;13.302;2022-11-14T04:10:05;6.60;99.90
35796;DHT22;21916;52.428;13.302;2022-11-14T04:12:51;6.50;99.90
35796;DHT22;21916;52.428;13.302;2022-11-14T04:15:36;6.50;99.90
35796;DHT22;21916;52.428;13.302;2022-11-14T04:18:21;6.60;99.90
35796;DHT22;21916;52.428;13.302;2022-11-14T04:21:06;6.50;99.90
35796;DHT22;21916;52.428;13.302;2022-11-14T04:23:51;6.50;99.90
35796;DHT22;21916;52.428;13.302;2022-11-14T04:26:35;6.50;99.90
35796;DHT22;21916;52.428;13.302;2022-11-14T04:29:19;6.50;99.90
35796;DHT22;21916;52.428;13.302;2022-11-14T04:32:04;6.50;99.90
35796;DHT22;21916;52.428;13.302;2022-11-14T04:34:48;6.50;99.90
35796;DHT22;21916;52.428;13.302;2022-11-14T04:37:33;6.50;99.90
35796;DHT22;21916;52.428;13.302;2022-11-14T04:40:18;6.50;99.90
35796;DHT22;21916;52.428;13.302;2022-11-14T04:43:02;6.50;99.90
35796;DHT22;21916;52.428;13.302;2022-11-14T04:45:47;6.50;99.90
35796;DHT22;21916;52.428;13.302;2022-11-14T04:48:31;6.60;99.90
35796;DHT22;21916;52.428;13.302;2022-11-14T04:51:16;6.50;99.90
35796;DHT22;21916;52.428;13.302;2022-11-14T04:54:01;6.60;99.90
35796;DHT22;21916;52.428;13.302;2022-11-14T04:56:46;6.50;99.90
35796;DHT22;21916;52.428;13.302;2022-11-14T04:59:31;6.50;99.90
35796;DHT22;21916;52.428;13.302;2022-11-14T05:02:15;6.60;99.90
35796;DHT22;21916;52.428;13.302;2022-11-14T05:05:00;6.50;99.90
35796;DHT22;21916;52.428;13.302;2022-11-14T05:07:45;6.50;99.90
35796;DHT22;21916;52.428;13.302;2022-11-14T05:10:29;6.40;99.90
35796;DHT22;21916;52.428;13.302;2022-11-14T05:13:14;6.40;99.90
35796;DHT22;21916;52.428;13.302;2022-11-14T05:16:00;6.50;99.90
35796;DHT22;21916;52.428;13.302;2022-11-14T05:18:44;6.50;99.90
35796;DHT22;21916;52.428;13.302;2022-11-14T05:21:29;6.50;99.90
35796;DHT22;21916;52.428;13.302;2022-11-14T05:24:13;6.40;99.90
35796;DHT22;21916;52.428;13.302;2022-11-14T05:27:01;6.40;99.90
35796;DHT22;21916;52.428;13.302;2022-11-14T05:29:46;6.40;99.90
35796;DHT22;21916;52.428;13.302;2022-11-14T05:32:30;6.40;99.90
35796;DHT22;21916;52.428;13.302;2022-11-14T05:35:15;6.40;99.90
35796;DHT22;21916;52.428;13.302;2022-11-14T05:38:02;6.50;99.90
35796;DHT22;21916;52.428;13.302;2022-11-14T05:40:47;6.40;99.90
35796;DHT22;21916;52.428;13.302;2022-11-14T05:43:35;6.50;99.90
35796;DHT22;21916;52.428;13.302;2022-11-14T05:46:19;6.50;99.90
35796;DHT22;21916;52.428;13.302;2022-11-14T05:49:04;6.40;99.90
35796;DHT22;21916;52.428;13.302;2022-11-14T05:51:49;6.40;99.90
35796;DHT22;21916;52.428;13.302;2022-11-14T05:54:33;6.40;99.90
35796;DHT22;21916;52.428;13.302;2022-11-14T05:57:18;6.40;99.90
35796;DHT22;21916;52.428;13.302;2022-11-14T06:00:04;6.40;99.90
35796;DHT22;21916;52.428;13.302;2022-11-14T06:02:53;6.30;99.90
35796;DHT22;21916;52.428;13.302;2022-11-14T06:05:38;6.30;99.90
35796;DHT22;21916;52.428;13.302;2022-11-14T06:08:22;6.40;99.90
35796;DHT22;21916;52.428;13.302;2022-11-14T06:11:10;6.40;99.90
35796;DHT22;21916;52.428;13.302;2022-11-14T06:13:55;6.40;99.90
35796;DHT22;21916;52.428;13.302;2022-11-14T06:16:42;6.30;99.90
35796;DHT22;21916;52.428;13.302;2022-11-14T06:19:27;6.20;99.90
35796;DHT22;21916;52.428;13.302;2022-11-14T06:22:12;6.20;99.90
35796;DHT22;21916;52.428;13.302;2022-11-14T06:24:56;6.20;99.90
35796;DHT22;21916;52.428;13.302;2022-11-14T06:27:41;6.20;99.90
35796;DHT22;21916;52.428;13.302;2022-11-14T06:30:26;6.20;99.90
35796;DHT22;21916;52.428;13.302;2022-11-14T06:33:10;6.20;99.90
35796;DHT22;21916;52.428;13.302;2022-11-14T06:36:02;6.10;99.90
35796;DHT22;21916;52.428;13.302;2022-11-14T06:38:47;6.00;99.90
35796;DHT22;21916;52.428;13.302;2022-11-14T06:41:32;6.00;99.90
35796;DHT22;21916;52.428;13.302;2022-11-14T06:44:16;6.10;99.90
35796;DHT22;21916;52.428;13.302;2022-11-14T06:47:04;6.10;99.90
35796;DHT22;21916;52.428;13.302;2022-11-14T06:49:52;6.10;99.90
35796;DHT22;21916;52.428;13.302;2022-11-14T06:52:36;6.00;99.90
35796;DHT22;21916;52.428;13.302;2022-11-14T06:55:20;5.90;99.90
35796;DHT22;21916;52.428;13.302;2022-11-14T06:58:05;6.00;99.90
35796;DHT22;21916;52.428;13.302;2022-11-14T07:00:50;6.10;99.90
35796;DHT22;21916;52.428;13.302;2022-11-14T07:03:34;6.10;99.90
35796;DHT22;21916;52.428;13.302;2022-11-14T07:06:25;6.10;99.90
35796;DHT22;21916;52.428;13.302;2022-11-14T07:09:10;6.20;99.90
35796;DHT22;21916;52.428;13.302;2022-11-14T07:11:55;6.20;99.90
35796;DHT22;21916;52.428;13.302;2022-11-14T07:14:39;6.20;99.90
35796;DHT22;21916;52.428;13.302;2022-11-14T07:17:24;6.20;99.90
35796;DHT22;21916;52.428;13.302;2022-11-14T07:20:09;6.20;99.90
35796;DHT22;21916;52.428;13.302;2022-11-14T07:22:54;6.30;99.90
35796;DHT22;21916;52.428;13.302;2022-11-14T07:25:39;6.30;99.90
35796;DHT22;21916;52.428;13.302;2022-11-14T07:28:23;6.40;99.90
35796;DHT22;21916;52.428;13.302;2022-11-14T07:31:10;6.40;99.90
35796;DHT22;21916;52.428;13.302;2022-11-14T07:33:55;6.50;99.90
35796;DHT22;21916;52.428;13.302;2022-11-14T07:36:40;6.50;99.90
35796;DHT22;21916;52.428;13.302;2022-11-14T07:39:25;6.60;99.90
35796;DHT22;21916;52.428;13.302;2022-11-14T07:42:10;6.70;99.90
35796;DHT22;21916;52.428;13.302;2022-11-14T07:44:54;6.70;99.90
35796;DHT22;21916;52.428;13.302;2022-11-14T07:47:39;6.80;99.90
35796;DHT22;21916;52.428;13.302;2022-11-14T07:50:24;6.80;99.90
35796;DHT22;21916;52.428;13.302;2022-11-14T07:53:09;7.00;99.90
35796;DHT22;21916;52.428;13.302;2022-11-14T07:55:55;7.10;99.90
35796;DHT22;21916;52.428;13.302;2022-11-14T07:58:40;7.20;99.90
35796;DHT22;21916;52.428;13.302;2022-11-14T08:01:25;7.20;99.90
35796;DHT22;21916;52.428;13.302;2022-11-14T08:04:10;7.30;99.90
35796;DHT22;21916;52.428;13.302;2022-11-14T08:06:54;7.30;99.90
35796;DHT22;21916;52.428;13.302;2022-11-14T08:09:39;7.50;99.90
35796;DHT22;21916;52.428;13.302;2022-11-14T08:12:23;7.50;99.90
35796;DHT22;21916;52.428;13.302;2022-11-14T08:15:10;7.50;99.90
35796;DHT22;21916;52.428;13.302;2022-11-14T08:17:58;7.50;99.90
35796;DHT22;21916;52.428;13.302;2022-11-14T08:20:43;7.50;99.90
35796;DHT22;21916;52.428;13.302;2022-11-14T08:23:27;7.60;99.90
35796;DHT22;21916;52.428;13.302;2022-11-14T08:26:12;7.60;99.90
35796;DHT22;21916;52.428;13.302;2022-11-14T08:28:56;7.60;99.90
35796;DHT22;21916;52.428;13.302;2022-11-14T08:31:41;7.80;99.90
35796;DHT22;21916;52.428;13.302;2022-11-14T08:34:25;7.80;99.90
35796;DHT22;21916;52.428;13.302;2022-11-14T08:37:12;7.90;99.90
35796;DHT22;21916;52.428;13.302;2022-11-14T08:40:00;8.00;99.90
35796;DHT22;21916;52.428;13.302;2022-11-14T08:42:45;8.10;99.90
35796;DHT22;21916;52.428;13.302;2022-11-14T08:45:29;8.30;99.90
35796;DHT22;21916;52.428;13.302;2022-11-14T08:48:17;8.50;99.90
35796;DHT22;21916;52.428;13.302;2022-11-14T08:51:06;8.40;99.90
35796;DHT22;21916;52.428;13.302;2022-11-14T08:53:50;8.40;99.90
35796;DHT22;21916;52.428;13.302;2022-11-14T08:56:36;8.50;99.90
35796;DHT22;21916;52.428;13.302;2022-11-14T08:59:24;8.60;99.90
35796;DHT22;21916;52.428;13.302;2022-11-14T09:02:12;8.80;99.90
35796;DHT22;21916;52.428;13.302;2022-11-14T09:04:56;8.90;99.90
35796;DHT22;21916;52.428;13.302;2022-11-14T09:07:41;9.00;99.90
35796;DHT22;21916;52.428;13.302;2022-11-14T09:10:26;9.00;99.90
35796;DHT22;21916;52.428;13.302;2022-11-14T09:13:10;9.00;99.90
35796;DHT22;21916;52.428;13.302;2022-11-14T09:15:55;9.10;99.90
35796;DHT22;21916;52.428;13.302;2022-11-14T09:18:40;9.10;99.90
35796;DHT22;21916;52.428;13.302;2022-11-14T09:21:25;9.20;99.90
35796;DHT22;21916;52.428;13.302;2022-11-14T09:24:09;9.40;99.90
35796;DHT22;21916;52.428;13.302;2022-11-14T09:26:54;9.40;99.90
35796;DHT22;21916;52.428;13.302;2022-11-14T09:29:39;9.50;99.90
35796;DHT22;21916;52.428;13.302;2022-11-14T09:32:23;9.60;99.90
35796;DHT22;21916;52.428;13.302;2022-11-14T09:35:10;9.70;99.90
35796;DHT22;21916;52.428;13.302;2022-11-14T09:38:04;9.70;99.90
35796;DHT22;21916;52.428;13.302;2022-11-14T09:41:17;9.80;99.90
35796;DHT22;21916;52.428;13.302;2022-11-14T09:44:37;10.00;99.90
35796;DHT22;21916;52.428;13.302;2022-11-14T09:47:37;10.30;99.90
35796;DHT22;21916;52.428;13.302;2022-11-14T09:50:31;10.60;99.90
35796;DHT22;21916;52.428;13.302;2022-11-14T09:53:39;11.10;99.90
35796;DHT22;21916;52.428;13.302;2022-11-14T09:56:27;12.00;99.90
35796;DHT22;21916;52.428;13.302;2022-11-14T09:59:12;13.20;99.90
35796;DHT22;21916;52.428;13.302;2022-11-14T10:08:39;15.10;99.90
35796;DHT22;21916;52.428;13.302;2022-11-14T10:11:23;15.90;99.90
35796;DHT22;21916;52.428;13.302;2022-11-14T10:14:36;16.50;99.90
35796;DHT22;21916;52.428;13.302;2022-11-14T10:23:37;17.60;99.90
35796;DHT22;21916;52.428;13.302;2022-11-14T10:26:27;17.90;99.40
35796;DHT22;21916;52.428;13.302;2022-11-14T10:35:23;19.20;96.90
35796;DHT22;21916;52.428;13.302;2022-11-14T10:40:57;19.30;96.10
35796;DHT22;21916;52.428;13.302;2022-11-14T10:43:47;19.90;95.20
35796;DHT22;21916;52.428;13.302;2022-11-14T10:49:53;20.50;93.30
35796;DHT22;21916;52.428;13.302;2022-11-14T10:52:40;20.70;93.60
35796;DHT22;21916;52.428;13.302;2022-11-14T10:55:27;21.60;92.40
35796;DHT22;21916;52.428;13.302;2022-11-14T10:58:12;22.10;90.90
35796;DHT22;21916;52.428;13.302;2022-11-14T11:04:33;22.80;89.70
35796;DHT22;21916;52.428;13.302;2022-11-14T11:07:24;23.10;88.30
35796;DHT22;21916;52.428;13.302;2022-11-14T11:10:27;24.10;86.50
35796;DHT22;21916;52.428;13.302;2022-11-14T11:16:18;25.40;82.00
35796;DHT22;21916;52.428;13.302;2022-11-14T11:19:25;25.80;79.10
35796;DHT22;21916;52.428;13.302;2022-11-14T11:22:37;25.90;77.90
35796;DHT22;21916;52.428;13.302;2022-11-14T11:25:27;26.10;77.30
35796;DHT22;21916;52.428;13.302;2022-11-14T11:28:18;26.40;75.90
35796;DHT22;21916;52.428;13.302;2022-11-14T11:31:04;26.50;74.90
35796;DHT22;21916;52.428;13.302;2022-11-14T11:33:49;26.70;75.10
35796;DHT22;21916;52.428;13.302;2022-11-14T11:36:38;26.60;74.10
35796;DHT22;21916;52.428;13.302;2022-11-14T11:39:32;26.20;72.70
35796;DHT22;21916;52.428;13.302;2022-11-14T11:42:26;25.80;72.90
35796;DHT22;21916;52.428;13.302;2022-11-14T11:45:15;25.20;74.00
35796;DHT22;21916;52.428;13.302;2022-11-14T11:48:19;25.70;73.60
35796;DHT22;21916;52.428;13.302;2022-11-14T11:51:06;25.90;72.50
35796;DHT22;21916;52.428;13.302;2022-11-14T11:54:02;26.00;72.80
35796;DHT22;21916;52.428;13.302;2022-11-14T11:56:52;26.00;72.10
35796;DHT22;21916;52.428;13.302;2022-11-14T11:59:44;25.80;72.30
35796;DHT22;21916;52.428;13.302;2022-11-14T12:02:30;25.40;72.20
35796;DHT22;21916;52.428;13.302;2022-11-14T12:05:27;25.70;72.10
35796;DHT22;21916;52.428;13.302;2022-11-14T12:11:03;25.20;72.80
35796;DHT22;21916;52.428;13.302;2022-11-14T12:20:33;25.70;71.90
35796;DHT22;21916;52.428;13.302;2022-11-14T12:33:17;23.40;73.80
35796;DHT22;21916;52.428;13.302;2022-11-14T12:36:08;22.70;75.40
35796;DHT22;21916;52.428;13.302;2022-11-14T12:38:53;22.30;76.70
35796;DHT22;21916;52.428;13.302;2022-11-14T12:41:39;22.50;76.90
35796;DHT22;21916;52.428;13.302;2022-11-14T12:47:24;23.30;75.30
35796;DHT22;21916;52.428;13.302;2022-11-14T12:50:39;23.40;74.70
35796;DHT22;21916;52.428;13.302;2022-11-14T12:59:37;23.40;75.50
35796;DHT22;21916;52.428;13.302;2022-11-14T13:05:53;23.60;75.00
35796;DHT22;21916;52.428;13.302;2022-11-14T13:18:29;25.80;72.10
35796;DHT22;21916;52.428;13.302;2022-11-14T13:21:32;26.50;71.30
35796;DHT22;21916;52.428;13.302;2022-11-14T13:27:40;27.70;69.10
35796;DHT22;21916;52.428;13.302;2022-11-14T13:33:54;26.60;69.00
35796;DHT22;21916;52.428;13.302;2022-11-14T13:46:20;26.80;68.80
35796;DHT22;21916;52.428;13.302;2022-11-14T13:51:59;26.10;68.50
35796;DHT22;21916;52.428;13.302;2022-11-14T13:54:46;24.60;71.10
35796;DHT22;21916;52.428;13.302;2022-11-14T14:00:21;23.80;72.90
35796;DHT22;21916;52.428;13.302;2022-11-14T14:03:31;23.40;73.40
35796;DHT22;21916;52.428;13.302;2022-11-14T14:06:39;22.20;75.30
35796;DHT22;21916;52.428;13.302;2022-11-14T14:15:40;21.80;76.10
35796;DHT22;21916;52.428;13.302;2022-11-14T14:30:14;16.90;89.10
35796;DHT22;21916;52.428;13.302;2022-11-14T14:33:13;16.50;90.70
35796;DHT22;21916;52.428;13.302;2022-11-14T14:35:58;15.80;92.00
35796;DHT22;21916;52.428;13.302;2022-11-14T14:38:43;15.40;93.20
35796;DHT22;21916;52.428;13.302;2022-11-14T14:41:30;14.90;94.70
35796;DHT22;21916;52.428;13.302;2022-11-14T14:44:27;14.50;96.10
35796;DHT22;21916;52.428;13.302;2022-11-14T14:47:40;14.00;97.50
35796;DHT22;21916;52.428;13.302;2022-11-14T14:50:30;13.80;99.40
35796;DHT22;21916;52.428;13.302;2022-11-14T14:53:20;13.60;99.90
35796;DHT22;21916;52.428;13.302;2022-11-14T14:56:16;13.40;99.90
35796;DHT22;21916;52.428;13.302;2022-11-14T14:59:18;13.20;99.90
35796;DHT22;21916;52.428;13.302;2022-11-14T15:02:02;13.10;99.90
35796;DHT22;21916;52.428;13.302;2022-11-14T15:04:47;12.80;99.90
35796;DHT22;21916;52.428;13.302;2022-11-14T15:07:33;12.50;99.90
35796;DHT22;21916;52.428;13.302;2022-11-14T15:10:23;12.40;99.90
35796;DHT22;21916;52.428;13.302;2022-11-14T15:13:13;12.10;99.90
35796;DHT22;21916;52.428;13.302;2022-11-14T15:15:59;12.00;99.90
35796;DHT22;21916;52.428;13.302;2022-11-14T15:18:44;11.80;99.90
35796;DHT22;21916;52.428;13.302;2022-11-14T15:21:29;11.60;99.90
35796;DHT22;21916;52.428;13.302;2022-11-14T15:24:17;11.50;99.90
35796;DHT22;21916;52.428;13.302;2022-11-14T15:27:04;11.20;99.90
35796;DHT22;21916;52.428;13.302;2022-11-14T15:29:54;11.20;99.90
35796;DHT22;21916;52.428;13.302;2022-11-14T15:32:50;11.00;99.90
35796;DHT22;21916;52.428;13.302;2022-11-14T15:35:37;10.80;99.90
35796;DHT22;21916;52.428;13.302;2022-11-14T15:38:22;10.60;99.90
35796;DHT22;21916;52.428;13.302;2022-11-14T15:41:20;10.70;99.90
35796;DHT22;21916;52.428;13.302;2022-11-14T15:44:04;10.50;99.90
35796;DHT22;21916;52.428;13.302;2022-11-14T15:46:49;10.40;99.90
35796;DHT22;21916;52.428;13.302;2022-11-14T15:49:34;10.20;99.90
35796;DHT22;21916;52.428;13.302;2022-11-14T15:52:23;10.10;99.90
35796;DHT22;21916;52.428;13.302;2022-11-14T15:55:16;10.10;99.90
35796;DHT22;21916;52.428;13.302;2022-11-14T15:58:08;10.00;99.90
35796;DHT22;21916;52.428;13.302;2022-11-14T16:00:54;9.90;99.90
35796;DHT22;21916;52.428;13.302;2022-11-14T16:03:45;9.90;99.90
35796;DHT22;21916;52.428;13.302;2022-11-14T16:06:34;9.80;99.90
35796;DHT22;21916;52.428;13.302;2022-11-14T16:09:20;9.70;99.90
35796;DHT22;21916;52.428;13.302;2022-11-14T16:12:05;9.60;99.90
35796;DHT22;21916;52.428;13.302;2022-11-14T16:14:49;9.50;99.90
35796;DHT22;21916;52.428;13.302;2022-11-14T16:17:36;9.40;99.90
35796;DHT22;21916;52.428;13.302;2022-11-14T16:20:26;9.30;99.90
35796;DHT22;21916;52.428;13.302;2022-11-14T16:23:11;9.20;99.90
35796;DHT22;21916;52.428;13.302;2022-11-14T16:25:57;9.20;99.90
35796;DHT22;21916;52.428;13.302;2022-11-14T16:28:41;9.20;99.90
35796;DHT22;21916;52.428;13.302;2022-11-14T16:31:26;9.10;99.90
35796;DHT22;21916;52.428;13.302;2022-11-14T16:34:17;9.00;99.90
35796;DHT22;21916;52.428;13.302;2022-11-14T16:37:02;8.90;99.90
35796;DHT22;21916;52.428;13.302;2022-11-14T16:39:47;8.90;99.90
35796;DHT22;21916;52.428;13.302;2022-11-14T16:42:32;8.90;99.90
35796;DHT22;21916;52.428;13.302;2022-11-14T16:45:16;8.90;99.90
35796;DHT22;21916;52.428;13.302;2022-11-14T16:48:03;8.80;99.90
35796;DHT22;21916;52.428;13.302;2022-11-14T16:50:48;8.70;99.90
35796;DHT22;21916;52.428;13.302;2022-11-14T16:53:32;8.70;99.90
35796;DHT22;21916;52.428;13.302;2022-11-14T16:56:17;8.70;99.90
35796;DHT22;21916;52.428;13.302;2022-11-14T16:59:02;8.60;99.90
35796;DHT22;21916;52.428;13.302;2022-11-14T17:01:46;8.50;99.90
35796;DHT22;21916;52.428;13.302;2022-11-14T17:04:31;8.40;99.90
35796;DHT22;21916;52.428;13.302;2022-11-14T17:07:16;8.40;99.90
35796;DHT22;21916;52.428;13.302;2022-11-14T17:10:01;8.40;99.90
35796;DHT22;21916;52.428;13.302;2022-11-14T17:12:46;8.40;99.90
35796;DHT22;21916;52.428;13.302;2022-11-14T17:15:30;8.30;99.90
35796;DHT22;21916;52.428;13.302;2022-11-14T17:18:15;8.30;99.90
35796;DHT22;21916;52.428;13.302;2022-11-14T17:21:04;8.30;99.90
35796;DHT22;21916;52.428;13.302;2022-11-14T17:23:56;8.30;99.90
35796;DHT22;21916;52.428;13.302;2022-11-14T17:26:41;8.20;99.90
35796;DHT22;21916;52.428;13.302;2022-11-14T17:29:26;8.10;99.90
35796;DHT22;21916;52.428;13.302;2022-11-14T17:32:10;8.10;99.90
35796;DHT22;21916;52.428;13.302;2022-11-14T17:34:54;8.00;99.90
35796;DHT22;21916;52.428;13.302;2022-11-14T17:37:40;7.90;99.90
35796;DHT22;21916;52.428;13.302;2022-11-14T17:40:24;7.90;99.90
35796;DHT22;21916;52.428;13.302;2022-11-14T17:43:09;7.80;99.90
35796;DHT22;21916;52.428;13.302;2022-11-14T17:45:55;7.90;99.90
35796;DHT22;21916;52.428;13.302;2022-11-14T17:48:40;7.80;99.90
35796;DHT22;21916;52.428;13.302;2022-11-14T17:51:24;7.90;99.90
35796;DHT22;21916;52.428;13.302;2022-11-14T17:54:09;7.90;99.90
35796;DHT22;21916;52.428;13.302;2022-11-14T17:56:54;7.80;99.90
35796;DHT22;21916;52.428;13.302;2022-11-14T17:59:39;7.80;99.90
35796;DHT22;21916;52.428;13.302;2022-11-14T18:02:24;7.80;99.90
35796;DHT22;21916;52.428;13.302;2022-11-14T18:05:09;7.70;99.90
35796;DHT22;21916;52.428;13.302;2022-11-14T18:07:54;7.70;99.90
35796;DHT22;21916;52.428;13.302;2022-11-14T18:10:39;7.70;99.90
35796;DHT22;21916;52.428;13.302;2022-11-14T18:13:24;7.70;99.90
35796;DHT22;21916;52.428;13.302;2022-11-14T18:16:14;7.70;99.90
35796;DHT22;21916;52.428;13.302;2022-11-14T18:18:59;7.60;99.90
35796;DHT22;21916;52.428;13.302;2022-11-14T18:21:45;7.60;99.90
35796;DHT22;21916;52.428;13.302;2022-11-14T18:24:29;7.50;99.90
35796;DHT22;21916;52.428;13.302;2022-11-14T18:27:13;7.60;99.90
35796;DHT22;21916;52.428;13.302;2022-11-14T18:29:58;7.50;99.90
35796;DHT22;21916;52.428;13.302;2022-11-14T18:32:42;7.40;99.90
35796;DHT22;21916;52.428;13.302;2022-11-14T18:35:26;7.30;99.90
35796;DHT22;21916;52.428;13.302;2022-11-14T18:38:11;7.20;99.90
35796;DHT22;21916;52.428;13.302;2022-11-14T18:40:56;7.20;99.90
35796;DHT22;21916;52.428;13.302;2022-11-14T18:43:41;7.20;99.90
35796;DHT22;21916;52.428;13.302;2022-11-14T18:46:27;7.20;99.90
35796;DHT22;21916;52.428;13.302;2022-11-14T18:49:13;7.10;99.90
35796;DHT22;21916;52.428;13.302;2022-11-14T18:52:00;7.10;99.90
35796;DHT22;21916;52.428;13.302;2022-11-14T18:54:44;7.20;99.90
35796;DHT22;21916;52.428;13.302;2022-11-14T18:57:28;7.10;99.90
35796;DHT22;21916;52.428;13.302;2022-11-14T19:00:13;7.20;99.90
35796;DHT22;21916;52.428;13.302;2022-11-14T19:02:58;7.10;99.90
35796;DHT22;21916;52.428;13.302;2022-11-14T19:05:43;7.00;99.90
35796;DHT22;21916;52.428;13.302;2022-11-14T19:08:27;7.10;99.90
35796;DHT22;21916;52.428;13.302;2022-11-14T19:11:15;7.00;99.90
35796;DHT22;21916;52.428;13.302;2022-11-14T19:14:19;7.10;99.90
35796;DHT22;21916;52.428;13.302;2022-11-14T19:17:04;7.10;99.90
35796;DHT22;21916;52.428;13.302;2022-11-14T19:19:50;7.10;99.90
35796;DHT22;21916;52.428;13.302;2022-11-14T19:22:40;7.10;99.90
35796;DHT22;21916;52.428;13.302;2022-11-14T19:25:24;7.20;99.90
35796;DHT22;21916;52.428;13.302;2022-11-14T19:28:09;7.10;99.90